Time;durP1;ratioP1;P1;durP2;ratioP2;P2;SDS_P1;SDS_P2;PMS_P1;PMS_P2;Temp;Humidity;BMP_temperature;BMP_pressure;BME280_temperature;BME280_humidity;BME280_pressure;Samples;Min_cycle;Max_cycle;Signal;HPM_P1;HPM_P2
2021/04/03 00:00:00;;;;;;;30.33;5.50;;;;;;;8.24;58.93;101721.94;5095054;28;20466;-49
2021/04/03 00:02:26;;;;;;;28.27;5.37;;;;;;;8.29;59.43;101721.31;5095138;28;20547;-46
2021/04/03 00:04:53;;;;;;;38.03;6.70;;;;;;;7.90;60.50;101729.03;5094832;28;20453;-45
2021/04/03 00:07:20;;;;;;;26.50;6.30;;;;;;;8.01;59.88;101724.63;5095879;28;20481;-45
2021/04/03 00:09:46;;;;;;;21.93;5.80;;;;;;;8.28;59.76;101729.81;5094600;28;20978;-47
2021/04/03 00:12:13;;;;;;;24.10;5.70;;;;;;;8.71;57.84;101722.41;5095083;28;20933;-44
2021/04/03 00:14:40;;;;;;;20.27;5.00;;;;;;;8.27;59.47;101728.97;5095639;28;20433;-45
2021/04/03 00:17:07;;;;;;;24.40;4.60;;;;;;;8.19;58.84;101723.28;5094650;28;20462;-45
2021/04/03 00:19:34;;;;;;;20.57;5.07;;;;;;;7.49;61.64;101712.56;5092991;28;20453;-45
2021/04/03 00:22:01;;;;;;;29.47;7.10;;;;;;;7.79;60.94;101723.19;5093978;28;20456;-45
2021/04/03 00:24:27;;;;;;;21.03;4.33;;;;;;;8.06;59.80;101724.13;5092279;28;20454;-45
2021/04/03 00:26:54;;;;;;;39.23;5.73;;;;;;;8.35;59.15;101721.72;5093979;28;20452;-45
2021/04/03 00:29:20;;;;;;;29.90;5.63;;;;;;;7.35;61.91;101735.59;5094763;28;20932;-47
2021/04/03 00:31:47;;;;;;;24.90;5.77;;;;;;;7.69;60.94;101731.91;5093568;28;20478;-45
2021/04/03 00:34:15;;;;;;;39.00;6.40;;;;;;;7.46;61.31;101732.88;5095115;28;20536;-45
2021/04/03 00:36:41;;;;;;;31.30;5.67;;;;;;;7.65;60.34;101741.06;5093775;28;20456;-45
2021/04/03 00:39:08;;;;;;;22.63;5.13;;;;;;;7.82;60.40;101724.28;5094990;28;20462;-47
2021/04/03 00:41:34;;;;;;;24.90;4.80;;;;;;;7.72;60.88;101741.50;5092779;28;20457;-48
2021/04/03 00:44:01;;;;;;;28.87;5.57;;;;;;;7.54;61.27;101744.59;5094247;28;20465;-46
2021/04/03 00:46:28;;;;;;;29.67;5.47;;;;;;;7.28;62.42;101743.66;5114060;28;20451;-47
2021/04/03 00:48:54;;;;;;;30.20;5.23;;;;;;;7.64;61.98;101741.84;5115374;28;20432;-51
2021/04/03 00:51:22;;;;;;;31.57;5.87;;;;;;;8.18;60.33;101742.09;5113655;28;20482;-47
2021/04/03 00:53:48;;;;;;;25.23;4.80;;;;;;;7.82;60.25;101746.50;5115235;28;20895;-45
2021/04/03 00:56:15;;;;;;;23.37;5.40;;;;;;;7.82;61.07;101743.94;5113913;28;20462;-45
2021/04/03 00:58:41;;;;;;;25.37;5.70;;;;;;;8.07;59.62;101740.47;5115139;28;20870;-47
2021/04/03 01:01:08;;;;;;;20.13;5.97;;;;;;;7.89;60.49;101738.41;5114348;28;20452;-46
2021/04/03 01:03:35;;;;;;;27.13;6.13;;;;;;;7.86;61.11;101748.50;5115278;28;20457;-47
2021/04/03 01:06:01;;;;;;;25.47;5.10;;;;;;;8.03;59.81;101743.59;5114329;28;20480;-47
2021/04/03 01:08:29;;;;;;;26.30;4.93;;;;;;;7.78;61.74;101739.34;5115022;28;20882;-46
2021/04/03 01:10:56;;;;;;;19.43;4.50;;;;;;;8.20;60.62;101737.06;5113903;28;20472;-46
2021/04/03 01:13:39;;;;;;;26.27;5.50;;;;;;;8.10;59.48;101745.78;5115269;28;20453;-47
2021/04/03 01:16:10;;;;;;;29.43;6.20;;;;;;;8.09;59.87;101751.72;5114635;28;20593;-48
2021/04/03 01:18:46;;;;;;;26.63;5.90;;;;;;;7.84;60.15;101763.81;5115281;28;20457;-46
2021/04/03 01:21:16;;;;;;;29.50;4.87;;;;;;;8.02;60.25;101752.09;5114219;28;20795;-46
2021/04/03 01:24:17;;;;;;;30.73;5.47;;;;;;;7.78;60.82;101762.47;5115255;28;20543;-45
2021/04/03 01:27:03;;;;;;;30.47;5.20;;;;;;;8.33;59.60;101755.06;5114142;28;20476;-45
2021/04/03 01:29:45;;;;;;;40.93;5.53;;;;;;;8.29;59.49;101763.38;5114951;28;20470;-47
2021/04/03 01:32:12;;;;;;;19.43;4.20;;;;;;;8.47;58.95;101755.09;5114328;28;20903;-45
2021/04/03 01:34:41;;;;;;;31.13;5.00;;;;;;;8.17;58.84;101766.00;5115292;28;20453;-45
2021/04/03 01:37:13;;;;;;;30.77;5.43;;;;;;;7.86;60.72;101769.06;5114638;28;20555;-46
2021/04/03 01:39:43;;;;;;;32.87;5.40;;;;;;;8.29;60.09;101765.03;5115227;28;20918;-45
2021/04/03 01:42:13;;;;;;;17.10;4.53;;;;;;;7.74;59.49;101761.38;5114086;28;20456;-45
2021/04/03 01:44:45;;;;;;;21.80;4.50;;;;;;;7.38;61.08;101776.00;5114912;28;20457;-44
2021/04/03 01:47:12;;;;;;;26.93;6.00;;;;;;;7.75;60.34;101781.13;5099743;28;20565;-45
2021/04/03 01:49:39;;;;;;;19.40;4.13;;;;;;;7.58;60.79;101782.53;5094978;28;20453;-45
2021/04/03 01:52:07;;;;;;;32.57;5.60;;;;;;;7.41;61.96;101789.94;5093440;28;20562;-48
2021/04/03 01:54:33;;;;;;;25.63;4.30;;;;;;;7.75;60.50;101782.81;5095152;28;20541;-46
2021/04/03 01:57:00;;;;;;;35.27;5.63;;;;;;;8.02;59.97;101789.00;5096320;28;21007;-47
2021/04/03 01:59:27;;;;;;;26.47;4.90;;;;;;;7.42;61.39;101784.03;5098913;28;20484;-45
2021/04/03 02:01:55;;;;;;;29.73;4.50;;;;;;;7.49;61.31;101784.47;5097636;28;20565;-46
2021/04/03 02:04:23;;;;;;;20.53;5.27;;;;;;;7.56;61.08;101791.81;5098558;28;20871;-48
2021/04/03 02:06:50;;;;;;;27.33;4.73;;;;;;;7.40;60.87;101785.56;5096611;28;20481;-45
2021/04/03 02:09:17;;;;;;;27.57;5.43;;;;;;;7.15;62.59;101791.53;5098882;28;20579;-45
2021/04/03 02:11:45;;;;;;;27.53;5.27;;;;;;;7.26;61.61;101786.28;5097103;28;20477;-47
2021/04/03 02:14:13;;;;;;;24.50;4.77;;;;;;;7.46;60.53;101790.28;5098485;28;20467;-45
2021/04/03 02:16:40;;;;;;;27.97;5.00;;;;;;;7.70;60.83;101788.53;5097002;28;20469;-45
2021/04/03 02:19:09;;;;;;;33.87;5.67;;;;;;;7.76;59.88;101784.59;5098486;28;20503;-45
2021/04/03 02:21:36;;;;;;;30.80;5.53;;;;;;;7.79;60.14;101790.84;5096942;28;20455;-45
2021/04/03 02:24:04;;;;;;;36.00;5.30;;;;;;;7.64;60.11;101789.78;5095373;28;20439;-45
2021/04/03 02:26:30;;;;;;;34.43;4.70;;;;;;;7.47;60.04;101788.56;5097256;28;20482;-47
2021/04/03 02:28:58;;;;;;;22.30;4.20;;;;;;;7.25;60.73;101782.81;5098346;28;20743;-45
2021/04/03 02:31:24;;;;;;;24.20;4.53;;;;;;;8.04;59.98;101786.50;5097019;28;20490;-45
2021/04/03 02:33:52;;;;;;;20.97;5.00;;;;;;;7.46;60.05;101797.06;5098188;28;20431;-46
2021/04/03 02:36:19;;;;;;;24.33;5.37;;;;;;;7.45;59.98;101783.34;5093703;28;20920;-47
2021/04/03 02:38:48;;;;;;;25.03;5.30;;;;;;;7.19;61.54;101790.09;5097900;28;20892;-45
2021/04/03 02:41:15;;;;;;;29.87;5.37;;;;;;;6.93;61.56;101801.91;5096247;28;20482;-48
2021/04/03 02:43:50;;;;;;;24.13;5.17;;;;;;;7.09;61.19;101797.91;5097967;28;20453;-46
2021/04/03 02:46:20;;;;;;;32.23;5.77;;;;;;;6.93;61.89;101801.00;5097283;28;20565;-47
2021/04/03 02:48:49;;;;;;;32.60;5.47;;;;;;;7.14;61.66;101807.69;5098033;28;20428;-46
2021/04/03 02:51:16;;;;;;;25.70;5.10;;;;;;;7.08;61.23;101804.69;5096443;28;20797;-48
2021/04/03 02:53:44;;;;;;;23.73;5.00;;;;;;;6.78;61.93;101809.38;5097896;28;20466;-45
2021/04/03 02:56:11;;;;;;;25.33;5.03;;;;;;;6.83;61.66;101813.16;5096795;28;20482;-47
2021/04/03 02:58:38;;;;;;;30.33;4.97;;;;;;;6.87;61.75;101815.16;5097635;28;20455;-45
2021/04/03 03:01:08;;;;;;;30.05;5.15;;;;;;;6.95;61.93;101817.41;5096577;28;20474;-45
2021/04/03 03:03:35;;;;;;;28.20;4.53;;;;;;;7.05;61.45;101807.03;5097834;28;20204;-46
2021/04/03 03:06:03;;;;;;;24.73;4.70;;;;;;;6.89;61.84;101811.03;5096769;28;20551;-45
2021/04/03 03:08:30;;;;;;;20.70;4.67;;;;;;;7.09;60.80;101814.19;5096809;28;20458;-46
2021/04/03 03:10:58;;;;;;;28.47;6.63;;;;;;;7.45;59.37;101798.75;5096008;28;20482;-45
2021/04/03 03:13:25;;;;;;;30.33;6.37;;;;;;;7.24;60.07;101809.25;5097377;28;20480;-45
2021/04/03 03:15:51;;;;;;;17.90;4.50;;;;;;;7.32;60.31;101814.06;5096400;28;20572;-45
2021/04/03 03:18:18;;;;;;;20.73;5.40;;;;;;;7.21;60.34;101816.75;5097540;28;20200;-45
2021/04/03 03:20:46;;;;;;;30.17;5.23;;;;;;;7.11;60.82;101821.97;5095744;28;20758;-45
2021/04/03 03:23:15;;;;;;;35.93;5.23;;;;;;;7.46;59.49;101810.81;5097255;28;20540;-46
2021/04/03 03:25:42;;;;;;;19.93;4.77;;;;;;;7.35;59.28;101822.88;5096124;28;20457;-45
2021/04/03 03:28:10;;;;;;;31.98;6.05;;;;;;;7.55;58.97;101815.72;5097079;28;20463;-45
2021/04/03 03:30:36;;;;;;;24.93;4.60;;;;;;;7.58;58.74;101818.47;5095901;28;20319;-45
2021/04/03 03:33:03;;;;;;;24.60;5.63;;;;;;;7.54;58.90;101814.81;5097085;28;20474;-46
2021/04/03 03:35:30;;;;;;;25.80;4.90;;;;;;;7.63;58.52;101824.84;5095611;28;20487;-46
2021/04/03 03:37:57;;;;;;;17.30;4.43;;;;;;;7.00;59.71;101839.16;5096982;28;20496;-45
2021/04/03 03:40:24;;;;;;;23.97;4.30;;;;;;;6.84;60.18;101832.91;5095361;28;20489;-46
2021/04/03 03:42:51;;;;;;;22.30;5.03;;;;;;;6.71;60.61;101833.66;5096615;28;20474;-48
2021/04/03 03:45:21;;;;;;;22.73;4.88;;;;;;;6.25;61.79;101838.75;5096077;28;20466;-46
2021/04/03 03:47:51;;;;;;;21.80;4.73;;;;;;;6.84;60.50;101848.31;5096777;28;20206;-45
2021/04/03 03:50:18;;;;;;;23.88;4.88;;;;;;;6.96;60.36;101842.28;5095175;28;20506;-46
2021/04/03 03:52:45;;;;;;;22.47;5.03;;;;;;;6.91;59.79;101849.63;5096593;28;20234;-46
2021/04/03 03:55:12;;;;;;;23.48;5.75;;;;;;;6.85;60.47;101856.88;5095364;28;20469;-47
2021/04/03 03:57:39;;;;;;;29.87;6.73;;;;;;;7.07;59.58;101856.81;5096782;28;20202;-49
2021/04/03 04:00:06;;;;;;;22.10;6.23;;;;;;;7.24;59.33;101849.44;5095661;28;20941;-46
2021/04/03 04:02:34;;;;;;;23.13;5.23;;;;;;;7.31;59.33;101851.69;5096083;28;20481;-49
2021/04/03 04:05:00;;;;;;;16.45;5.30;;;;;;;7.06;59.36;101859.25;5095346;28;20469;-47
2021/04/03 04:07:34;;;;;;;19.83;6.03;;;;;;;6.99;59.41;101857.91;5096186;28;20196;-46
2021/04/03 04:10:00;;;;;;;18.10;5.93;;;;;;;6.90;60.46;101858.13;5095318;28;20488;-48
2021/04/03 04:12:30;;;;;;;16.60;6.70;;;;;;;6.71;60.35;101860.97;5095969;28;20559;-47
2021/04/03 04:14:56;;;;;;;19.00;6.10;;;;;;;6.82;60.08;101861.81;5095746;28;20236;-50
2021/04/03 04:17:23;;;;;;;17.37;6.07;;;;;;;6.78;59.91;101860.69;5096191;28;20458;-45
2021/04/03 04:19:51;;;;;;;19.67;5.90;;;;;;;6.51;60.66;101857.78;5094549;28;20464;-47
2021/04/03 04:22:17;;;;;;;27.67;5.80;;;;;;;6.54;61.14;101864.84;5095501;28;20565;-45
2021/04/03 04:24:44;;;;;;;25.17;6.40;;;;;;;6.45;60.70;101868.50;5095145;28;20458;-48
2021/04/03 04:27:11;;;;;;;28.45;6.32;;;;;;;6.38;60.78;101875.59;5096000;28;20233;-47
2021/04/03 04:29:38;;;;;;;22.53;5.70;;;;;;;6.43;60.78;101874.28;5095975;28;20594;-47
2021/04/03 04:32:05;;;;;;;21.37;5.70;;;;;;;6.33;61.45;101872.69;5094826;28;20516;-47
2021/04/03 04:34:31;;;;;;;16.67;4.80;;;;;;;7.03;60.07;101865.94;5092476;28;20428;-45
2021/04/03 04:36:59;;;;;;;15.83;5.20;;;;;;;7.46;58.26;101867.31;5094869;28;20476;-48
2021/04/03 04:39:25;;;;;;;14.50;4.77;;;;;;;7.14;58.54;101869.31;5096098;28;20769;-46
2021/04/03 04:41:52;;;;;;;20.87;5.33;;;;;;;7.34;58.56;101861.28;5090873;28;20469;-44
2021/04/03 04:44:19;;;;;;;10.30;4.33;;;;;;;7.51;57.95;101865.06;5095869;28;20460;-45
2021/04/03 04:46:45;;;;;;;18.87;5.47;;;;;;;7.54;58.04;101870.44;5094701;28;20508;-45
2021/04/03 04:49:12;;;;;;;18.33;4.70;;;;;;;7.32;58.81;101874.00;5095576;28;20438;-45
2021/04/03 04:51:38;;;;;;;17.50;5.20;;;;;;;7.72;57.31;101876.00;5094183;28;20487;-46
2021/04/03 04:54:07;;;;;;;15.07;3.90;;;;;;;7.99;56.82;101875.28;5095850;28;20538;-46
2021/04/03 04:56:33;;;;;;;17.00;4.77;;;;;;;7.99;56.53;101888.13;5094519;28;20484;-47
2021/04/03 04:59:00;;;;;;;15.53;4.83;;;;;;;7.50;58.06;101892.44;5095713;28;20464;-45
2021/04/03 05:01:27;;;;;;;22.73;4.37;;;;;;;7.74;56.45;101902.66;5094477;28;20474;-45
2021/04/03 05:03:53;;;;;;;16.63;4.33;;;;;;;6.93;59.14;101916.47;5095452;28;20431;-45
2021/04/03 05:06:20;;;;;;;20.45;4.95;;;;;;;7.03;58.77;101911.28;5094678;28;20485;-45
2021/04/03 05:08:47;;;;;;;18.77;4.70;;;;;;;7.00;59.45;101911.03;5095399;28;20211;-45
2021/04/03 05:11:14;;;;;;;20.93;5.63;;;;;;;7.10;58.13;101917.72;5093918;28;20458;-46
2021/04/03 05:13:40;;;;;;;15.70;4.50;;;;;;;6.99;58.79;101927.19;5095435;28;20443;-48
2021/04/03 05:16:07;;;;;;;16.40;4.43;;;;;;;6.63;59.61;101929.66;5094763;28;20972;-44
2021/04/03 05:18:34;;;;;;;13.90;4.80;;;;;;;6.69;59.43;101929.22;5095258;28;20227;-46
2021/04/03 05:21:02;;;;;;;15.35;4.55;;;;;;;6.89;59.26;101934.19;5094027;28;20318;-47
2021/04/03 05:23:28;;;;;;;13.23;3.97;;;;;;;6.65;59.55;101922.97;5095375;28;20208;-47
2021/04/03 05:25:56;;;;;;;10.87;3.90;;;;;;;6.90;59.02;101929.97;5094537;28;20802;-47
2021/04/03 05:28:23;;;;;;;21.30;4.73;;;;;;;6.50;59.84;101932.06;5095299;28;20541;-45
2021/04/03 05:30:50;;;;;;;11.83;4.20;;;;;;;6.53;59.82;101935.75;5094580;28;20488;-49
2021/04/03 05:33:16;;;;;;;20.70;4.93;;;;;;;6.40;60.51;101936.47;5099490;28;20460;-46
2021/04/03 05:35:43;;;;;;;18.63;4.70;;;;;;;6.40;60.11;101943.28;5098032;28;20247;-46
2021/04/03 05:38:09;;;;;;;14.35;5.03;;;;;;;6.62;59.45;101954.41;5099235;28;20900;-49
2021/04/03 05:40:36;;;;;;;14.95;4.55;;;;;;;6.98;58.79;101944.25;5097453;28;20232;-47
2021/04/03 05:43:03;;;;;;;19.60;5.00;;;;;;;6.76;59.13;101957.13;5098939;28;20604;-46
2021/04/03 05:45:31;;;;;;;12.10;3.93;;;;;;;7.11;58.75;101958.91;5098327;28;20478;-46
2021/04/03 05:47:58;;;;;;;13.43;3.83;;;;;;;6.83;59.33;101949.13;5099282;28;20457;-47
2021/04/03 05:50:25;;;;;;;11.27;4.53;;;;;;;6.70;59.56;101960.13;5097467;28;20481;-45
2021/04/03 05:52:52;;;;;;;12.90;4.97;;;;;;;6.65;59.93;101958.00;5098842;28;20561;-47
2021/04/03 05:55:19;;;;;;;12.00;4.30;;;;;;;6.33;60.59;101971.00;5098024;28;20470;-47
2021/04/03 05:57:46;;;;;;;11.93;4.43;;;;;;;6.91;59.32;101970.22;5098912;28;20821;-46
2021/04/03 06:00:14;;;;;;;11.50;4.57;;;;;;;7.16;58.60;101980.69;5097709;28;20549;-46
2021/04/03 06:02:42;;;;;;;13.27;3.93;;;;;;;7.02;58.99;101981.31;5098817;28;20479;-44
2021/04/03 06:05:10;;;;;;;14.73;4.30;;;;;;;7.01;59.07;101979.53;5097569;28;20465;-44
2021/04/03 06:07:38;;;;;;;12.80;3.93;;;;;;;7.14;58.54;101981.38;5098805;28;20453;-45
2021/04/03 06:10:07;;;;;;;12.03;4.40;;;;;;;7.52;57.99;101987.56;5097343;28;20924;-45
2021/04/03 06:12:42;;;;;;;14.50;4.53;;;;;;;7.27;58.14;101994.34;5098240;28;20481;-45
2021/04/03 06:15:13;;;;;;;14.60;5.03;;;;;;;7.40;58.27;101995.25;5097963;28;20801;-45
2021/04/03 06:17:39;;;;;;;11.33;3.93;;;;;;;7.24;58.49;102003.47;5098513;28;20485;-45
2021/04/03 06:20:08;;;;;;;10.43;3.90;;;;;;;7.78;57.62;102006.56;5097266;28;20942;-47
2021/04/03 06:22:46;;;;;;;13.23;4.33;;;;;;;7.39;57.99;102009.75;5097604;28;20503;-49
2021/04/03 06:25:13;;;;;;;16.53;4.97;;;;;;;7.83;57.41;102008.69;5097222;28;20473;-48
2021/04/03 06:27:40;;;;;;;11.93;4.30;;;;;;;7.56;57.59;102011.03;5098235;28;21005;-45
2021/04/03 06:30:14;;;;;;;11.83;4.13;;;;;;;7.75;57.14;102022.63;5097430;28;20440;-46
2021/04/03 06:32:44;;;;;;;13.00;4.90;;;;;;;7.87;57.21;102019.19;5096051;28;20453;-48
2021/04/03 06:35:12;;;;;;;10.90;4.67;;;;;;;7.83;56.86;102018.06;5116555;28;20464;-45
2021/04/03 06:37:39;;;;;;;15.60;3.77;;;;;;;8.15;56.48;102023.78;5118488;28;20431;-45
2021/04/03 06:40:08;;;;;;;15.30;4.67;;;;;;;8.09;56.91;102025.13;5096428;28;20462;-46
2021/04/03 06:42:50;;;;;;;16.93;4.33;;;;;;;8.02;56.58;102024.53;5076433;28;20453;-46
2021/04/03 06:45:24;;;;;;;15.00;3.90;;;;;;;7.95;56.49;102024.09;5108154;28;20458;-46
2021/04/03 06:47:52;;;;;;;11.50;3.97;;;;;;;8.22;56.78;102032.00;5088728;28;20456;-47
2021/04/03 06:50:21;;;;;;;8.87;4.03;;;;;;;8.48;55.27;102032.09;5110720;28;20473;-45
2021/04/03 06:52:48;;;;;;;13.20;3.87;;;;;;;8.68;55.49;102038.69;5117949;28;20928;-46
2021/04/03 06:55:17;;;;;;;8.73;3.87;;;;;;;8.96;53.69;102032.88;5117160;28;20492;-47
2021/04/03 06:57:46;;;;;;;8.23;3.97;;;;;;;9.02;54.11;102040.09;5084184;28;20437;-48
2021/04/03 07:00:14;;;;;;;11.33;3.43;;;;;;;8.73;53.97;102045.03;5076340;28;20467;-46
2021/04/03 07:02:45;;;;;;;15.73;5.10;;;;;;;9.21;54.42;102038.78;5082782;28;20461;-45
2021/04/03 07:05:13;;;;;;;14.67;4.90;;;;;;;9.45;53.01;102055.91;5096313;28;20476;-50
2021/04/03 07:07:43;;;;;;;13.47;4.63;;;;;;;9.38;54.34;102045.97;5097501;28;20438;-49
2021/04/03 07:10:13;;;;;;;13.43;3.47;;;;;;;9.52;53.60;102046.91;5096178;28;20451;-45
2021/04/03 07:12:40;;;;;;;16.47;4.23;;;;;;;9.56;53.21;102056.66;5097142;28;20577;-46
2021/04/03 07:15:07;;;;;;;11.93;3.80;;;;;;;9.61;50.55;102048.31;5096190;28;20878;-45
2021/04/03 07:17:37;;;;;;;11.33;4.17;;;;;;;9.65;50.25;102048.59;5097339;28;20438;-45
2021/04/03 07:20:07;;;;;;;12.50;3.30;;;;;;;9.52;50.44;102052.06;5095703;28;20441;-46
2021/04/03 07:22:33;;;;;;;7.33;2.57;;;;;;;9.80;50.28;102053.00;5096635;28;20929;-47
2021/04/03 07:25:01;;;;;;;6.63;2.70;;;;;;;9.56;50.45;102056.66;5096084;28;20464;-45
2021/04/03 07:27:28;;;;;;;13.97;4.37;;;;;;;9.78;49.02;102054.56;5096824;28;20454;-45
2021/04/03 07:29:54;;;;;;;19.53;4.00;;;;;;;10.14;48.62;102050.03;5096115;28;20523;-45
2021/04/03 07:32:38;;;;;;;13.33;3.20;;;;;;;10.23;48.86;102055.78;5095964;28;20465;-46
2021/04/03 07:35:19;;;;;;;11.40;3.10;;;;;;;10.13;47.26;102062.03;5095805;28;20540;-45
2021/04/03 07:37:47;;;;;;;14.70;3.40;;;;;;;10.15;47.03;102056.09;5096806;28;20531;-45
2021/04/03 07:40:37;;;;;;;6.93;2.90;;;;;;;10.46;46.61;102058.94;5095400;28;20730;-45
2021/04/03 07:43:04;;;;;;;9.70;2.67;;;;;;;10.75;45.23;102056.41;5096255;28;20565;-47
2021/04/03 07:45:44;;;;;;;9.10;2.80;;;;;;;10.54;45.79;102062.03;5095897;28;20808;-45
2021/04/03 07:48:14;;;;;;;8.03;2.30;;;;;;;10.88;44.69;102064.09;5096664;28;20428;-47
2021/04/03 07:50:50;;;;;;;13.40;2.57;;;;;;;11.42;46.39;102066.47;5094823;28;20463;-46
2021/04/03 07:53:37;;;;;;;11.70;2.37;;;;;;;11.09;42.55;102063.66;5096487;28;20541;-47
2021/04/03 07:56:05;;;;;;;11.90;2.33;;;;;;;11.00;41.22;102057.91;5095491;28;20589;-49
2021/04/03 07:58:33;;;;;;;10.00;1.90;;;;;;;11.20;41.22;102066.88;5096467;28;20465;-49
2021/04/03 08:01:18;;;;;;;5.37;1.50;;;;;;;11.13;42.51;102069.88;5095430;28;20472;-49
2021/04/03 08:03:53;;;;;;;8.50;2.67;;;;;;;11.54;40.74;102070.56;5096358;28;20458;-48
2021/04/03 08:06:20;;;;;;;5.67;2.07;;;;;;;11.80;41.84;102073.78;5095393;28;20828;-45
2021/04/03 08:08:46;;;;;;;5.67;2.10;;;;;;;12.00;40.82;102075.81;5096205;28;20804;-50
2021/04/03 08:11:15;;;;;;;8.17;2.10;;;;;;;11.44;38.98;102070.00;5094716;28;20783;-45
2021/04/03 08:13:43;;;;;;;7.03;2.00;;;;;;;11.60;38.58;102068.34;5096333;28;20458;-47
2021/04/03 08:16:11;;;;;;;4.03;1.30;;;;;;;11.72;37.36;102074.25;5095447;28;20920;-46
2021/04/03 08:18:40;;;;;;;7.30;1.90;;;;;;;11.81;37.78;102072.97;5095469;28;21252;-46
2021/04/03 08:21:07;;;;;;;6.07;1.17;;;;;;;11.45;37.86;102079.53;5094513;28;20944;-45
2021/04/03 08:23:36;;;;;;;6.20;1.27;;;;;;;11.92;36.82;102079.66;5095967;28;20565;-49
2021/04/03 08:26:04;;;;;;;3.70;1.17;;;;;;;11.59;36.75;102082.09;5094703;28;20481;-49
2021/04/03 08:28:32;;;;;;;10.23;1.37;;;;;;;11.99;35.57;102080.88;5095994;28;20440;-46
2021/04/03 08:30:59;;;;;;;7.20;2.00;;;;;;;12.08;36.49;102088.31;5094805;28;20515;-47
2021/04/03 08:33:30;;;;;;;8.87;1.93;;;;;;;11.96;35.75;102086.81;5109311;28;20506;-47
2021/04/03 08:35:58;;;;;;;5.43;1.60;;;;;;;12.27;36.67;102085.97;5115064;28;20484;-46
2021/04/03 08:38:25;;;;;;;3.67;1.20;;;;;;;12.22;36.29;102095.19;5115818;28;20459;-46
2021/04/03 08:40:55;;;;;;;7.00;1.50;;;;;;;12.51;35.91;102100.22;5114534;28;20483;-46
2021/04/03 08:43:25;;;;;;;3.80;1.37;;;;;;;12.65;35.70;102095.75;5116051;28;20486;-46
2021/04/03 08:45:53;;;;;;;7.73;1.93;;;;;;;12.27;35.75;102105.78;5115337;28;20482;-46
2021/04/03 08:48:20;;;;;;;7.30;2.63;;;;;;;12.62;36.69;102093.91;5092557;28;20453;-45
2021/04/03 08:50:48;;;;;;;4.27;1.70;;;;;;;12.37;35.94;102102.03;5093529;28;20484;-48
2021/04/03 08:53:15;;;;;;;4.60;1.57;;;;;;;12.95;36.39;102103.41;5095440;28;20459;-46
2021/04/03 08:55:42;;;;;;;6.60;1.50;;;;;;;12.78;35.30;102098.19;5097909;28;20855;-45
2021/04/03 08:58:09;;;;;;;11.47;1.67;;;;;;;12.20;34.23;102104.53;5115992;28;20466;-45
2021/04/03 09:00:36;;;;;;;8.70;1.97;;;;;;;12.15;33.75;102101.69;5114589;28;20480;-46
2021/04/03 09:03:04;;;;;;;4.23;1.40;;;;;;;12.51;33.69;102095.91;5115796;28;20478;-47
2021/04/03 09:05:30;;;;;;;4.70;1.93;;;;;;;12.58;33.64;102101.41;5113949;28;20554;-48
2021/04/03 09:07:57;;;;;;;5.97;2.13;;;;;;;12.41;34.28;102104.84;5098254;28;20472;-46
2021/04/03 09:10:25;;;;;;;3.80;1.40;;;;;;;12.30;34.25;102098.19;5094024;28;20480;-47
2021/04/03 09:12:52;;;;;;;5.63;1.30;;;;;;;12.63;33.30;102105.16;5094971;28;20493;-46
2021/04/03 09:15:27;;;;;;;6.80;1.90;;;;;;;12.84;33.72;102095.06;5094418;28;20484;-47
2021/04/03 09:17:55;;;;;;;5.83;1.60;;;;;;;12.67;33.50;102101.94;5095225;28;20895;-46
2021/04/03 09:20:24;;;;;;;4.33;1.80;;;;;;;13.00;33.95;102096.78;5093933;28;20527;-46
2021/04/03 09:22:52;;;;;;;4.87;1.57;;;;;;;12.76;33.24;102102.41;5095103;28;20949;-46
2021/04/03 09:25:19;;;;;;;6.13;1.40;;;;;;;12.43;33.22;102102.34;5093628;28;20472;-46
2021/04/03 09:28:00;;;;;;;3.23;1.00;;;;;;;12.71;33.11;102103.88;5095230;28;20784;-46
2021/04/03 09:30:32;;;;;;;4.57;1.40;;;;;;;12.94;33.23;102104.22;5093866;28;20483;-48
2021/04/03 09:33:16;;;;;;;4.83;1.70;;;;;;;13.40;34.54;102094.50;5095201;28;20563;-48
2021/04/03 09:35:44;;;;;;;7.60;2.10;;;;;;;13.69;34.55;102095.13;5093796;28;20470;-49
2021/04/03 09:38:10;;;;;;;5.63;1.70;;;;;;;13.75;32.37;102093.72;5095077;28;20551;-51
2021/04/03 09:40:41;;;;;;;8.70;2.93;;;;;;;13.81;35.57;102084.47;5093228;28;20467;-47
2021/04/03 09:43:09;;;;;;;5.07;1.70;;;;;;;13.76;34.98;102089.44;5094414;28;20524;-47
2021/04/03 09:45:41;;;;;;;5.70;1.50;;;;;;;14.15;33.62;102087.00;5093970;28;20882;-47
2021/04/03 09:48:10;;;;;;;6.30;0.90;;;;;;;13.41;31.62;102096.25;5095034;28;20458;-48
2021/04/03 09:50:38;;;;;;;7.20;1.43;;;;;;;12.99;31.08;102095.00;5093269;28;20561;-46
2021/04/03 09:53:10;;;;;;;4.17;1.07;;;;;;;13.13;31.65;102094.84;5094909;28;20483;-48
2021/04/03 09:55:38;;;;;;;4.30;0.97;;;;;;;13.36;30.40;102086.56;5093654;28;20496;-48
2021/04/03 09:58:05;;;;;;;4.40;1.07;;;;;;;13.28;30.51;102102.53;5094965;28;20464;-46
2021/04/03 10:00:34;;;;;;;3.13;1.10;;;;;;;13.50;30.58;102087.28;5093712;28;20479;-48
2021/04/03 10:03:04;;;;;;;4.27;0.80;;;;;;;13.30;30.09;102090.53;5094989;28;20473;-45
2021/04/03 10:05:31;;;;;;;4.50;1.13;;;;;;;13.44;31.05;102080.88;5093352;28;20478;-45
2021/04/03 10:07:57;;;;;;;7.20;1.97;;;;;;;13.83;28.64;102083.72;5094582;28;20464;-45
2021/04/03 10:10:30;;;;;;;7.20;1.40;;;;;;;13.70;29.41;102094.31;5093338;28;20476;-47
2021/04/03 10:13:07;;;;;;;6.90;1.30;;;;;;;13.66;30.42;102097.56;5094655;28;20488;-46
2021/04/03 10:15:37;;;;;;;5.10;1.57;;;;;;;14.15;30.38;102092.19;5093731;28;20523;-46
2021/04/03 10:18:15;;;;;;;3.17;1.00;;;;;;;14.62;29.58;102090.88;5095519;28;20473;-46
2021/04/03 10:20:57;;;;;;;5.97;1.97;;;;;;;14.48;30.68;102087.63;5096548;28;20772;-46
2021/04/03 10:23:33;;;;;;;7.50;1.30;;;;;;;14.22;31.05;102103.78;5097457;28;20471;-47
2021/04/03 10:26:03;;;;;;;19.63;7.73;;;;;;;14.12;31.02;102105.03;5097058;28;20483;-45
2021/04/03 10:28:36;;;;;;;6.67;2.10;;;;;;;14.77;33.93;102099.41;5082191;28;20746;-45
2021/04/03 10:31:06;;;;;;;7.67;2.47;;;;;;;14.03;31.14;102102.88;5095439;28;20494;-48
2021/04/03 10:33:33;;;;;;;5.77;2.40;;;;;;;13.93;31.76;102104.94;5097963;28;20462;-46
2021/04/03 10:36:01;;;;;;;5.10;2.10;;;;;;;13.83;31.07;102109.66;5096469;28;20846;-48
2021/04/03 10:38:28;;;;;;;6.97;1.77;;;;;;;14.07;31.71;102114.28;5097172;28;20557;-47
2021/04/03 10:40:55;;;;;;;5.43;1.70;;;;;;;14.42;31.07;102102.09;5096080;28;20548;-47
2021/04/03 10:43:27;;;;;;;6.13;1.60;;;;;;;14.94;33.51;102102.81;5097689;28;20457;-48
2021/04/03 10:45:54;;;;;;;4.33;1.67;;;;;;;14.64;31.11;102104.81;5096520;28;20480;-48
2021/04/03 10:48:20;;;;;;;6.97;2.07;;;;;;;14.51;31.33;102100.78;5085650;28;20461;-47
2021/04/03 10:50:47;;;;;;;6.10;1.43;;;;;;;14.22;31.23;102108.06;5075680;28;20941;-48
2021/04/03 10:53:14;;;;;;;6.80;2.33;;;;;;;14.38;30.22;102105.41;5077270;28;20457;-46
2021/04/03 10:55:41;;;;;;;4.03;1.20;;;;;;;14.15;30.22;102097.38;5076376;28;20478;-47
2021/04/03 10:58:08;;;;;;;9.50;1.53;;;;;;;14.07;31.25;102103.00;5077206;28;20453;-47
2021/04/03 11:00:36;;;;;;;4.20;1.43;;;;;;;14.47;31.38;102104.03;5081482;28;20502;-47
2021/04/03 11:03:04;;;;;;;5.47;1.67;;;;;;;14.70;30.68;102098.22;5089121;28;20477;-46
2021/04/03 11:05:30;;;;;;;6.83;1.30;;;;;;;14.85;29.48;102103.25;5096220;28;20473;-46
2021/04/03 11:07:57;;;;;;;3.90;1.17;;;;;;;14.27;29.98;102093.59;5094384;28;20762;-46
2021/04/03 11:10:23;;;;;;;7.27;2.40;;;;;;;15.28;30.08;102086.91;5095578;28;20589;-49
2021/04/03 11:12:50;;;;;;;3.60;1.30;;;;;;;14.80;29.34;102093.47;5096385;28;20979;-49
2021/04/03 11:15:17;;;;;;;4.93;1.70;;;;;;;14.41;29.61;102087.34;5096527;28;20485;-45
2021/04/03 11:17:44;;;;;;;3.57;1.13;;;;;;;14.27;29.32;102091.91;5097504;28;20457;-47
2021/04/03 11:20:12;;;;;;;4.97;1.60;;;;;;;14.07;29.98;102090.94;5095908;28;20465;-46
2021/04/03 11:22:39;;;;;;;8.57;2.60;;;;;;;15.09;29.19;102086.97;5096751;28;20474;-46
2021/04/03 11:25:07;;;;;;;6.43;1.60;;;;;;;15.41;28.98;102084.00;5095478;28;20465;-47
2021/04/03 11:27:34;;;;;;;10.57;3.83;;;;;;;15.17;28.62;102091.66;5096674;28;20462;-47
2021/04/03 11:30:13;;;;;;;9.13;1.67;;;;;;;14.54;29.43;102090.53;5095441;28;20454;-46